createdAt,value
2022-08-14T00:02:31.411Z,25.10
2022-08-14T00:05:00.264Z,25.00
2022-08-14T00:07:28.727Z,24.90
2022-08-14T00:10:49.168Z,24.90
2022-08-14T00:12:56.911Z,24.80
2022-08-14T00:15:37.700Z,24.60
2022-08-14T00:18:30.684Z,24.50
2022-08-14T00:21:10.909Z,24.40
2022-08-14T00:23:40.917Z,24.30
2022-08-14T00:26:22.990Z,24.10
2022-08-14T00:28:52.456Z,24.00
2022-08-14T00:31:34.767Z,23.90
2022-08-14T00:34:37.520Z,23.90
2022-08-14T00:36:53.731Z,23.70
2022-08-14T00:39:22.166Z,23.70
2022-08-14T00:41:50.658Z,23.60
2022-08-14T00:44:21.458Z,23.60
2022-08-14T00:47:01.100Z,23.60
2022-08-14T00:49:38.122Z,23.60
2022-08-14T00:52:11.469Z,23.50
2022-08-14T00:54:43.565Z,23.50
2022-08-14T00:57:14.004Z,23.40
2022-08-14T00:59:42.330Z,23.40
2022-08-14T01:02:11.704Z,23.40
2022-08-14T01:04:53.778Z,23.40
2022-08-14T01:07:23.550Z,23.40
2022-08-14T01:09:54.015Z,23.30
2022-08-14T01:12:27.250Z,23.20
2022-08-14T01:14:58.539Z,23.20
2022-08-14T01:17:50.722Z,23.20
2022-08-14T01:20:41.111Z,23.20
2022-08-14T01:23:16.047Z,23.20
2022-08-14T01:25:48.162Z,23.20
2022-08-14T01:28:34.103Z,23.10
2022-08-14T01:31:08.512Z,23.10
2022-08-14T01:34:00.057Z,23.10
2022-08-14T01:36:36.624Z,23.10
2022-08-14T01:39:12.557Z,23.10
2022-08-14T01:41:44.057Z,23.10
2022-08-14T01:44:33.417Z,23.20
2022-08-14T01:47:21.459Z,23.20
2022-08-14T01:50:01.412Z,23.20
2022-08-14T01:52:58.628Z,23.20
2022-08-14T01:55:30.515Z,23.30
2022-08-14T01:58:01.573Z,23.30
2022-08-14T02:00:53.982Z,23.30
2022-08-14T02:03:23.401Z,23.30
2022-08-14T02:05:51.813Z,23.30
2022-08-14T02:08:22.380Z,23.20
2022-08-14T02:11:22.246Z,23.20
2022-08-14T02:13:58.453Z,23.20
2022-08-14T02:16:30.638Z,23.30
2022-08-14T02:19:01.767Z,23.20
2022-08-14T02:21:34.954Z,23.30
2022-08-14T02:24:40.231Z,23.30
2022-08-14T02:28:22.182Z,23.20
2022-08-14T02:29:59.302Z,23.20
2022-08-14T02:32:36.077Z,23.10
2022-08-14T02:35:10.233Z,23.10
2022-08-14T02:37:48.440Z,23.10
2022-08-14T02:40:18.530Z,23.00
2022-08-14T02:42:54.013Z,23.00
2022-08-14T02:45:23.783Z,23.00
2022-08-14T02:47:57.256Z,22.90
2022-08-14T02:50:26.985Z,22.80
2022-08-14T02:53:02.859Z,22.80
2022-08-14T02:55:33.003Z,22.60
2022-08-14T02:58:05.757Z,22.50
2022-08-14T03:00:39.949Z,22.50
2022-08-14T03:03:09.083Z,22.40
2022-08-14T03:05:41.086Z,22.40
2022-08-14T03:08:15.072Z,22.40
2022-08-14T03:10:48.620Z,22.40
2022-08-14T03:13:21.706Z,22.30
2022-08-14T03:15:55.940Z,22.30
2022-08-14T03:18:32.017Z,22.30
2022-08-14T03:21:07.667Z,22.20
2022-08-14T03:23:38.436Z,22.10
2022-08-14T03:26:13.157Z,22.10
2022-08-14T03:28:51.498Z,22.10
2022-08-14T03:31:26.099Z,22.10
2022-08-14T03:33:59.890Z,22.00
2022-08-14T03:37:38.094Z,21.90
2022-08-14T03:39:22.930Z,21.80
2022-08-14T03:41:54.500Z,21.70
2022-08-14T03:45:26.232Z,21.60
2022-08-14T03:47:15.165Z,21.60
2022-08-14T03:49:50.185Z,21.50
2022-08-14T03:52:38.341Z,21.50
2022-08-14T03:55:09.233Z,21.40
2022-08-14T03:57:37.918Z,21.30
2022-08-14T04:00:40.282Z,21.20
2022-08-14T04:03:02.319Z,21.20
2022-08-14T04:05:42.583Z,21.20
2022-08-14T04:08:29.086Z,21.10
2022-08-14T04:11:01.157Z,21.10
2022-08-14T04:13:31.535Z,21.00
2022-08-14T04:16:05.366Z,20.90
2022-08-14T04:18:39.677Z,20.90
2022-08-14T04:21:10.831Z,20.80
2022-08-14T04:23:39.917Z,20.80
2022-08-14T04:26:14.651Z,20.70
2022-08-14T04:29:01.578Z,20.70
2022-08-14T04:32:57.282Z,20.60
2022-08-14T04:34:33.873Z,20.60
2022-08-14T04:37:22.328Z,20.50
2022-08-14T04:40:12.105Z,20.50
2022-08-14T04:42:58.507Z,20.40
2022-08-14T04:45:32.704Z,20.40
2022-08-14T04:48:38.912Z,20.40
2022-08-14T04:51:04.225Z,20.40
2022-08-14T04:53:35.242Z,20.40
2022-08-14T04:56:06.021Z,20.40
2022-08-14T04:58:57.504Z,20.30
2022-08-14T05:01:27.435Z,20.30
2022-08-14T05:03:57.432Z,20.30
2022-08-14T05:06:35.097Z,20.30
2022-08-14T05:09:14.042Z,20.30
2022-08-14T05:11:44.293Z,20.30
2022-08-14T05:14:16.670Z,20.20
2022-08-14T05:17:02.457Z,20.20
2022-08-14T05:19:33.033Z,20.20
2022-08-14T05:22:16.581Z,20.20
2022-08-14T05:24:48.686Z,20.10
2022-08-14T05:27:22.801Z,20.00
2022-08-14T05:29:56.931Z,20.00
2022-08-14T05:32:27.892Z,19.90
2022-08-14T05:34:59.808Z,19.90
2022-08-14T05:37:29.612Z,19.90
2022-08-14T05:40:00.940Z,19.90
2022-08-14T05:42:34.372Z,19.90
2022-08-14T05:45:05.145Z,19.80
2022-08-14T05:48:04.029Z,19.90
2022-08-14T05:50:56.875Z,19.80
2022-08-14T05:53:42.677Z,19.80
2022-08-14T05:56:33.485Z,19.80
2022-08-14T06:00:24.693Z,19.90
2022-08-14T08:11:19.786Z,21.60
2022-08-14T08:13:54.564Z,21.50
2022-08-14T08:16:24.732Z,21.60
2022-08-14T08:19:19.512Z,21.60
2022-08-14T08:22:48.369Z,21.60
2022-08-14T08:25:21.180Z,21.60
2022-08-14T08:27:59.934Z,21.60
2022-08-14T08:30:49.689Z,21.60
2022-08-14T08:33:32.106Z,21.60
2022-08-14T08:36:01.843Z,21.60
2022-08-14T08:39:17.064Z,21.50
2022-08-14T08:41:22.688Z,21.40
2022-08-14T08:43:52.684Z,21.50
2022-08-14T08:46:24.069Z,21.50
2022-08-14T08:51:30.476Z,21.30
2022-08-14T08:54:01.949Z,21.30
2022-08-14T08:56:40.059Z,21.20
2022-08-14T08:59:26.960Z,21.30
2022-08-14T09:01:58.786Z,21.30
2022-08-14T09:04:29.981Z,21.30
2022-08-14T09:07:10.074Z,21.40
2022-08-14T09:09:54.289Z,21.50
2022-08-14T09:12:32.146Z,21.50
2022-08-14T09:15:11.424Z,21.50
2022-08-14T09:17:42.290Z,21.50
2022-08-14T09:20:12.679Z,21.50
2022-08-14T09:22:48.191Z,21.40
2022-08-14T09:25:19.545Z,21.40
2022-08-14T09:27:48.622Z,21.30
2022-08-14T09:30:32.334Z,21.40
2022-08-14T09:33:36.066Z,21.40
2022-08-14T09:36:45.404Z,21.40
2022-08-14T09:39:28.427Z,21.50
2022-08-14T09:42:20.386Z,21.60
2022-08-14T09:45:11.734Z,21.60
2022-08-14T09:47:49.177Z,21.70
2022-08-14T09:50:25.970Z,21.70
2022-08-14T09:52:58.098Z,21.70
2022-08-14T09:55:36.887Z,21.70
2022-08-14T09:58:19.346Z,21.70
2022-08-14T10:00:50.197Z,21.80
2022-08-14T10:03:34.769Z,21.80
2022-08-14T10:06:11.970Z,21.90
2022-08-14T10:08:51.606Z,21.80
2022-08-14T10:11:23.950Z,21.80
2022-08-14T10:13:55.977Z,21.90
2022-08-14T10:16:32.927Z,21.90
2022-08-14T10:19:10.205Z,21.90
2022-08-14T10:23:13.380Z,22.00
2022-08-14T10:24:36.889Z,22.00
2022-08-14T10:27:16.367Z,22.00
2022-08-14T10:29:46.110Z,22.00
2022-08-14T10:32:18.200Z,22.00
2022-08-14T10:35:09.315Z,22.00
2022-08-14T10:37:49.951Z,22.10
2022-08-14T10:40:36.945Z,22.10
2022-08-14T10:43:25.863Z,22.10
2022-08-14T11:01:41.061Z,22.20
2022-08-14T11:04:25.855Z,22.20
2022-08-14T11:06:57.027Z,22.30
2022-08-14T11:09:26.252Z,22.30
2022-08-14T11:12:33.137Z,22.30
2022-08-14T11:14:59.441Z,22.20
2022-08-14T11:17:33.023Z,22.20
2022-08-14T11:20:05.201Z,22.20
2022-08-14T11:23:01.005Z,22.20
2022-08-14T11:25:43.204Z,22.20
2022-08-14T11:28:14.666Z,22.30
2022-08-14T11:30:54.228Z,22.40
2022-08-14T11:33:31.425Z,22.40
2022-08-14T11:36:13.793Z,22.40
2022-08-14T11:38:48.438Z,22.40
2022-08-14T11:41:18.389Z,22.40
2022-08-14T11:43:56.009Z,22.50
2022-08-14T11:46:30.574Z,22.50
2022-08-14T11:49:09.591Z,22.60
2022-08-14T11:51:54.570Z,22.70
2022-08-14T11:54:33.642Z,22.70
2022-08-14T11:57:05.439Z,22.80
2022-08-14T11:59:34.388Z,22.90
2022-08-14T12:03:00.906Z,23.00
2022-08-14T12:05:09.357Z,23.00
2022-08-14T12:07:49.105Z,23.10
2022-08-14T12:10:27.389Z,23.20
2022-08-14T12:13:14.583Z,23.20
2022-08-14T12:15:51.431Z,23.20
2022-08-14T12:18:32.444Z,23.30
2022-08-14T12:21:19.011Z,23.30
2022-08-14T12:24:01.872Z,23.40
2022-08-14T12:26:39.283Z,23.30
2022-08-14T12:29:11.258Z,23.40
2022-08-14T12:31:44.769Z,23.30
2022-08-14T12:34:20.185Z,23.30
2022-08-14T12:36:51.413Z,23.40
2022-08-14T12:39:23.024Z,23.40
2022-08-14T12:41:57.343Z,23.40
2022-08-14T12:44:33.414Z,23.40
2022-08-14T12:47:13.347Z,23.40
2022-08-14T12:49:54.339Z,23.40
2022-08-14T12:52:42.979Z,23.40
2022-08-14T12:55:32.493Z,23.40
2022-08-14T12:58:28.803Z,23.30
2022-08-14T13:01:20.593Z,23.40
2022-08-14T13:03:51.781Z,23.40
2022-08-14T13:06:27.384Z,23.40
2022-08-14T13:09:00.085Z,23.30
2022-08-14T13:11:41.082Z,23.30
2022-08-14T13:14:17.455Z,23.20
2022-08-14T13:16:50.683Z,23.10
2022-08-14T13:19:24.409Z,23.00
2022-08-14T13:22:47.672Z,22.90
2022-08-14T13:25:22.934Z,22.90
2022-08-14T13:27:55.063Z,23.00
2022-08-14T13:30:33.910Z,23.00
2022-08-14T13:33:05.726Z,23.00
2022-08-14T13:35:47.595Z,23.00
2022-08-14T13:38:23.099Z,23.10
2022-08-14T13:40:59.760Z,23.10
2022-08-14T13:43:36.966Z,23.00
2022-08-14T13:47:00.101Z,23.00
2022-08-14T13:49:32.469Z,22.80
2022-08-14T13:52:48.342Z,22.70
2022-08-14T13:55:06.948Z,22.60
2022-08-14T13:57:56.857Z,22.50
2022-08-14T14:04:20.271Z,22.50
2022-08-14T14:06:52.257Z,22.40
2022-08-14T14:09:32.630Z,22.40
2022-08-14T14:16:22.041Z,22.40
2022-08-14T14:19:04.471Z,22.30
2022-08-14T14:22:35.743Z,22.30
2022-08-14T14:25:22.579Z,22.30
2022-08-14T14:27:53.521Z,22.30
2022-08-14T14:30:46.390Z,22.20
2022-08-14T14:33:42.160Z,22.20
2022-08-14T14:36:04.993Z,22.30
2022-08-14T14:38:35.069Z,22.30
2022-08-14T14:41:05.695Z,22.20
2022-08-14T14:43:44.886Z,22.30
2022-08-14T14:46:15.750Z,22.40
2022-08-14T14:48:46.773Z,22.40
2022-08-14T14:51:24.225Z,22.60
2022-08-14T14:53:55.675Z,22.70
2022-08-14T14:56:49.721Z,22.90
2022-08-14T14:59:17.068Z,22.90
2022-08-14T15:01:50.254Z,22.90
2022-08-14T15:04:20.905Z,22.80
2022-08-14T15:06:52.643Z,22.80
2022-08-14T15:09:23.638Z,22.70
2022-08-14T15:11:52.418Z,22.60
2022-08-14T15:14:56.912Z,22.60
2022-08-14T15:17:11.909Z,22.60
2022-08-14T15:19:42.083Z,22.50
2022-08-14T15:22:51.974Z,22.40
2022-08-14T15:25:22.530Z,22.30
2022-08-14T15:27:54.577Z,22.30
2022-08-14T15:30:32.326Z,22.20
2022-08-14T15:33:01.338Z,22.10
2022-08-14T15:35:33.973Z,22.00
2022-08-14T15:38:07.953Z,22.00
2022-08-14T15:40:41.230Z,21.90
2022-08-14T15:43:12.937Z,21.90
2022-08-14T15:45:43.313Z,21.80
2022-08-14T15:48:22.132Z,21.80
2022-08-14T15:50:51.876Z,21.80
2022-08-14T15:53:22.338Z,21.70
2022-08-14T15:55:53.045Z,21.70
2022-08-14T15:58:22.310Z,21.60
2022-08-14T16:01:10.354Z,21.60
2022-08-14T16:03:42.393Z,21.60
2022-08-14T16:06:18.021Z,21.70
2022-08-14T16:08:50.150Z,21.70
2022-08-14T16:11:26.534Z,21.70
2022-08-14T16:13:57.551Z,21.80
2022-08-14T16:16:50.547Z,21.80
2022-08-14T16:19:21.209Z,21.90
2022-08-14T16:22:59.190Z,21.80
2022-08-14T16:25:19.476Z,21.90
2022-08-14T16:28:03.550Z,21.90
2022-08-14T16:30:36.277Z,21.90
2022-08-14T16:33:07.315Z,21.90
2022-08-14T16:35:43.501Z,22.00
2022-08-14T16:38:46.194Z,22.00
2022-08-14T16:41:26.393Z,22.10
2022-08-14T16:43:59.257Z,22.10
2022-08-14T16:46:31.638Z,21.90
2022-08-14T16:49:03.105Z,21.90
2022-08-14T16:51:36.426Z,21.90
2022-08-14T16:54:10.444Z,21.80
2022-08-14T16:57:17.046Z,21.80
2022-08-14T16:59:57.489Z,21.80
2022-08-14T17:02:35.630Z,21.80
2022-08-14T17:05:22.432Z,21.80
2022-08-14T17:08:31.566Z,21.80
2022-08-14T17:11:10.848Z,21.70
2022-08-14T17:13:59.628Z,21.60
2022-08-14T17:16:37.090Z,21.70
2022-08-14T17:19:13.722Z,21.70
2022-08-14T17:22:35.045Z,21.70
2022-08-14T17:25:05.768Z,21.80
2022-08-14T17:27:34.281Z,21.80
2022-08-14T17:30:03.196Z,21.80
2022-08-14T17:32:56.765Z,21.70
2022-08-14T17:35:38.892Z,21.70
2022-08-14T17:38:39.162Z,21.70
2022-08-14T17:41:23.405Z,21.70
2022-08-14T17:46:43.720Z,21.80
2022-08-14T17:49:17.996Z,21.90
2022-08-14T17:52:03.769Z,21.90
2022-08-14T17:54:38.913Z,21.90
2022-08-14T17:57:17.217Z,21.90
2022-08-14T17:59:48.389Z,21.90
2022-08-14T18:02:19.219Z,22.00
2022-08-14T18:04:51.113Z,21.90
2022-08-14T18:07:59.969Z,21.90
2022-08-14T18:10:55.614Z,21.80
2022-08-14T18:13:02.836Z,21.80
2022-08-14T18:15:36.987Z,21.80
2022-08-14T18:18:08.856Z,21.80
2022-08-14T18:21:40.371Z,21.80
2022-08-14T18:23:28.352Z,21.70
2022-08-14T18:26:00.193Z,21.70
2022-08-14T18:28:47.857Z,21.70
2022-08-14T18:31:44.114Z,21.70
2022-08-14T18:34:50.776Z,21.70
2022-08-14T18:37:21.767Z,21.70
2022-08-14T18:40:02.963Z,21.60
2022-08-14T18:42:45.492Z,21.60
2022-08-14T18:45:19.131Z,21.50
2022-08-14T18:48:33.561Z,21.50
2022-08-14T18:51:45.833Z,21.50
2022-08-14T18:54:32.982Z,21.40
2022-08-14T18:57:05.406Z,21.40
2022-08-14T18:59:37.081Z,21.40
2022-08-14T19:02:44.386Z,21.40
2022-08-14T19:05:14.456Z,21.40
2022-08-14T19:07:43.508Z,21.30
2022-08-14T19:10:31.871Z,21.30
2022-08-14T19:13:11.874Z,21.30
2022-08-14T19:15:43.062Z,21.30
2022-08-14T19:18:38.415Z,21.30
2022-08-14T19:21:13.210Z,21.30
2022-08-14T19:24:29.184Z,21.30
2022-08-14T19:27:19.201Z,21.30
2022-08-14T19:29:52.122Z,21.30
2022-08-14T19:32:40.903Z,21.30
2022-08-14T19:35:55.164Z,21.40
2022-08-14T19:38:53.830Z,21.30
2022-08-14T19:41:29.445Z,21.30
2022-08-14T19:44:11.635Z,21.30
2022-08-14T19:47:00.366Z,21.30
2022-08-14T19:50:24.465Z,21.30
2022-08-14T19:52:29.671Z,21.30
2022-08-14T19:55:00.251Z,21.30
2022-08-14T19:57:32.447Z,21.30
2022-08-14T20:00:28.255Z,21.30
2022-08-14T20:03:11.256Z,21.30
2022-08-14T20:05:45.390Z,21.30
2022-08-14T20:09:05.155Z,21.30
2022-08-14T20:11:43.520Z,21.20
2022-08-14T20:14:09.369Z,21.20
2022-08-14T20:16:40.499Z,21.20
2022-08-14T20:19:18.526Z,21.20
2022-08-14T20:22:04.143Z,21.20
2022-08-14T20:24:43.953Z,21.20
2022-08-14T20:27:35.030Z,21.20
2022-08-14T20:33:07.867Z,21.20
2022-08-14T20:35:44.254Z,21.10
2022-08-14T20:38:30.348Z,21.10
2022-08-14T20:41:06.719Z,21.10
2022-08-14T20:43:56.793Z,21.10
2022-08-14T20:46:31.711Z,21.10
2022-08-14T20:49:03.155Z,21.10
2022-08-14T20:51:37.311Z,21.10
2022-08-14T20:54:09.097Z,21.10
2022-08-14T20:56:40.755Z,21.10
2022-08-14T20:59:22.833Z,21.10
2022-08-14T21:01:55.397Z,21.10
2022-08-14T21:04:30.554Z,21.10
2022-08-14T21:07:25.423Z,21.00
2022-08-14T21:10:35.915Z,21.00
2022-08-14T21:13:26.807Z,21.00
2022-08-14T21:15:43.695Z,21.00
2022-08-14T21:18:28.910Z,20.90
2022-08-14T21:20:59.945Z,20.90
2022-08-14T21:23:32.521Z,20.90
2022-08-14T21:26:03.660Z,20.80
2022-08-14T21:28:35.831Z,20.80
2022-08-14T21:31:05.569Z,20.80
2022-08-14T21:33:36.339Z,20.80
2022-08-14T21:36:08.724Z,20.80
2022-08-14T21:38:42.275Z,20.70
2022-08-14T21:41:43.468Z,20.70
2022-08-14T21:44:17.618Z,20.70
2022-08-14T21:46:53.666Z,20.70
2022-08-14T21:49:34.001Z,20.70
2022-08-14T21:52:51.113Z,20.70
2022-08-14T21:55:00.636Z,20.60
2022-08-14T21:57:56.219Z,20.60
2022-08-14T22:00:34.656Z,20.60
2022-08-14T22:03:08.876Z,20.60
2022-08-14T22:05:41.732Z,20.50
2022-08-14T22:08:13.941Z,20.50
2022-08-14T22:10:44.807Z,20.50
2022-08-14T22:13:16.899Z,20.40
2022-08-14T22:15:49.515Z,20.40
2022-08-14T22:18:21.021Z,20.40
2022-08-14T22:20:54.032Z,20.40
2022-08-14T22:23:26.106Z,20.30
2022-08-14T22:25:55.218Z,20.30
2022-08-14T22:28:27.215Z,20.30
2022-08-14T22:31:02.603Z,20.30
2022-08-14T22:33:32.247Z,20.20
2022-08-14T22:36:26.211Z,20.20
2022-08-14T22:38:55.064Z,20.20
2022-08-14T22:41:27.682Z,20.20
2022-08-14T22:44:06.558Z,20.10
2022-08-14T22:46:35.249Z,20.10
2022-08-14T22:49:16.274Z,20.00
2022-08-14T22:51:54.904Z,20.00
2022-08-14T22:54:53.041Z,20.00
2022-08-14T22:57:13.664Z,20.00
2022-08-14T22:59:43.128Z,19.90
2022-08-14T23:02:15.722Z,19.90
2022-08-14T23:04:54.061Z,19.90
2022-08-14T23:07:25.241Z,19.90
2022-08-14T23:10:33.873Z,19.90
2022-08-14T23:13:03.598Z,19.90
2022-08-14T23:15:33.792Z,19.90
2022-08-14T23:18:03.237Z,19.90
2022-08-14T23:20:31.891Z,19.90
2022-08-14T23:23:01.664Z,19.90
2022-08-14T23:25:57.124Z,19.80
2022-08-14T23:28:33.520Z,19.80
2022-08-14T23:31:34.985Z,19.80
2022-08-14T23:34:07.055Z,19.80
2022-08-14T23:36:37.506Z,19.80
2022-08-14T23:39:30.303Z,19.80
2022-08-14T23:42:02.347Z,19.70
2022-08-14T23:44:35.107Z,19.70
2022-08-14T23:47:11.832Z,19.70
2022-08-14T23:50:00.677Z,19.70
2022-08-14T23:52:55.721Z,19.70
2022-08-14T23:55:26.990Z,19.70
2022-08-14T23:57:57.990Z,19.60
